sensor_id;sensor_type;location;lat;lon;timestamp;temperature;humidity
67572;SHT31;54397;47.506;19.158;2023-02-11T00:01:44;-0.65;68.03
67572;SHT31;54397;47.506;19.158;2023-02-11T00:05:05;-1.05;69.87
67572;SHT31;54397;47.506;19.158;2023-02-11T00:08:27;-1.02;69.91
67572;SHT31;54397;47.506;19.158;2023-02-11T00:11:49;-1.23;69.94
67572;SHT31;54397;47.506;19.158;2023-02-11T00:15:12;-1.26;70.36
67572;SHT31;54397;47.506;19.158;2023-02-11T00:18:34;-1.08;69.23
67572;SHT31;54397;47.506;19.158;2023-02-11T00:21:56;-1.22;69.86
67572;SHT31;54397;47.506;19.158;2023-02-11T00:25:18;-1.28;70.82
67572;SHT31;54397;47.506;19.158;2023-02-11T00:28:40;-1.22;69.82
67572;SHT31;54397;47.506;19.158;2023-02-11T00:32:02;-1.29;69.97
67572;SHT31;54397;47.506;19.158;2023-02-11T00:35:25;-1.44;70.99
67572;SHT31;54397;47.506;19.158;2023-02-11T00:38:48;-1.49;70.52
67572;SHT31;54397;47.506;19.158;2023-02-11T00:42:13;-1.25;68.67
67572;SHT31;54397;47.506;19.158;2023-02-11T00:45:35;-1.20;69.00
67572;SHT31;54397;47.506;19.158;2023-02-11T00:48:56;-1.32;69.34
67572;SHT31;54397;47.506;19.158;2023-02-11T00:52:20;-1.22;68.33
67572;SHT31;54397;47.506;19.158;2023-02-11T00:55:42;-1.74;70.48
67572;SHT31;54397;47.506;19.158;2023-02-11T00:59:07;-1.64;70.07
67572;SHT31;54397;47.506;19.158;2023-02-11T01:02:29;-1.82;70.55
67572;SHT31;54397;47.506;19.158;2023-02-11T01:05:51;-1.75;70.72
67572;SHT31;54397;47.506;19.158;2023-02-11T01:09:16;-1.57;69.51
67572;SHT31;54397;47.506;19.158;2023-02-11T01:12:38;-1.49;69.75
67572;SHT31;54397;47.506;19.158;2023-02-11T01:16:05;-1.36;69.89
67572;SHT31;54397;47.506;19.158;2023-02-11T01:19:28;-1.53;68.86
67572;SHT31;54397;47.506;19.158;2023-02-11T01:22:49;-1.78;69.74
67572;SHT31;54397;47.506;19.158;2023-02-11T01:26:11;-1.94;70.68
67572;SHT31;54397;47.506;19.158;2023-02-11T01:29:36;-1.78;70.41
67572;SHT31;54397;47.506;19.158;2023-02-11T01:32:57;-1.88;70.42
67572;SHT31;54397;47.506;19.158;2023-02-11T01:36:21;-1.91;70.38
67572;SHT31;54397;47.506;19.158;2023-02-11T01:39:47;-1.70;69.38
67572;SHT31;54397;47.506;19.158;2023-02-11T01:43:10;-1.75;70.26
67572;SHT31;54397;47.506;19.158;2023-02-11T01:46:33;-1.95;71.02
67572;SHT31;54397;47.506;19.158;2023-02-11T01:49:57;-1.78;69.87
67572;SHT31;54397;47.506;19.158;2023-02-11T01:53:20;-1.75;69.92
67572;SHT31;54397;47.506;19.158;2023-02-11T01:57:01;-1.92;69.96
67572;SHT31;54397;47.506;19.158;2023-02-11T02:00:42;-1.88;69.71
67572;SHT31;54397;47.506;19.158;2023-02-11T02:04:05;-1.70;69.80
67572;SHT31;54397;47.506;19.158;2023-02-11T02:07:32;-1.66;69.47
67572;SHT31;54397;47.506;19.158;2023-02-11T02:10:57;-1.58;69.14
67572;SHT31;54397;47.506;19.158;2023-02-11T02:14:21;-1.54;69.13
67572;SHT31;54397;47.506;19.158;2023-02-11T02:18:04;-1.63;68.13
67572;SHT31;54397;47.506;19.158;2023-02-11T02:36:36;-1.98;69.31
67572;SHT31;54397;47.506;19.158;2023-02-11T02:40:08;-1.88;69.37
67572;SHT31;54397;47.506;19.158;2023-02-11T02:43:30;-2.40;71.21
67572;SHT31;54397;47.506;19.158;2023-02-11T02:46:55;-2.42;71.68
67572;SHT31;54397;47.506;19.158;2023-02-11T02:50:26;-2.39;70.67
67572;SHT31;54397;47.506;19.158;2023-02-11T03:11:22;-2.12;69.91
67572;SHT31;54397;47.506;19.158;2023-02-11T03:14:48;-2.54;71.65
67572;SHT31;54397;47.506;19.158;2023-02-11T03:18:14;-2.80;71.83
67572;SHT31;54397;47.506;19.158;2023-02-11T03:21:40;-2.71;72.02
67572;SHT31;54397;47.506;19.158;2023-02-11T03:25:03;-2.83;72.58
67572;SHT31;54397;47.506;19.158;2023-02-11T03:28:31;-2.47;71.02
67572;SHT31;54397;47.506;19.158;2023-02-11T03:32:08;-2.16;70.04
67572;SHT31;54397;47.506;19.158;2023-02-11T03:35:53;-2.32;70.33
67572;SHT31;54397;47.506;19.158;2023-02-11T03:43:36;-2.05;69.16
67572;SHT31;54397;47.506;19.158;2023-02-11T03:46:59;-2.05;69.28
67572;SHT31;54397;47.506;19.158;2023-02-11T03:50:23;-2.08;69.85
67572;SHT31;54397;47.506;19.158;2023-02-11T03:53:49;-2.12;69.42
67572;SHT31;54397;47.506;19.158;2023-02-11T03:57:12;-1.97;69.19
67572;SHT31;54397;47.506;19.158;2023-02-11T04:00:36;-2.03;68.85
67572;SHT31;54397;47.506;19.158;2023-02-11T04:03:59;-1.88;68.84
67572;SHT31;54397;47.506;19.158;2023-02-11T04:07:22;-1.92;68.89
67572;SHT31;54397;47.506;19.158;2023-02-11T04:10:51;-1.98;68.89
67572;SHT31;54397;47.506;19.158;2023-02-11T04:14:12;-2.16;69.23
67572;SHT31;54397;47.506;19.158;2023-02-11T04:17:36;-2.08;69.01
67572;SHT31;54397;47.506;19.158;2023-02-11T04:20:58;-2.32;70.60
67572;SHT31;54397;47.506;19.158;2023-02-11T04:24:19;-2.57;70.97
67572;SHT31;54397;47.506;19.158;2023-02-11T04:27:43;-2.61;70.25
67572;SHT31;54397;47.506;19.158;2023-02-11T04:31:07;-2.73;70.79
67572;SHT31;54397;47.506;19.158;2023-02-11T04:34:34;-2.61;70.95
67572;SHT31;54397;47.506;19.158;2023-02-11T04:37:56;-2.44;70.13
67572;SHT31;54397;47.506;19.158;2023-02-11T04:41:20;-2.50;69.56
67572;SHT31;54397;47.506;19.158;2023-02-11T04:44:44;-2.67;70.26
67572;SHT31;54397;47.506;19.158;2023-02-11T04:48:05;-2.99;71.70
67572;SHT31;54397;47.506;19.158;2023-02-11T04:51:27;-2.81;70.46
67572;SHT31;54397;47.506;19.158;2023-02-11T04:54:51;-3.02;71.76
67572;SHT31;54397;47.506;19.158;2023-02-11T04:58:13;-2.91;70.97
67572;SHT31;54397;47.506;19.158;2023-02-11T05:01:34;-2.83;70.95
67572;SHT31;54397;47.506;19.158;2023-02-11T05:04:56;-3.09;72.36
67572;SHT31;54397;47.506;19.158;2023-02-11T05:08:25;-3.13;72.41
67572;SHT31;54397;47.506;19.158;2023-02-11T05:11:47;-3.01;71.64
67572;SHT31;54397;47.506;19.158;2023-02-11T05:15:09;-2.77;71.28
67572;SHT31;54397;47.506;19.158;2023-02-11T05:18:30;-2.98;71.29
67572;SHT31;54397;47.506;19.158;2023-02-11T05:21:54;-2.96;71.59
67572;SHT31;54397;47.506;19.158;2023-02-11T05:25:26;-2.80;70.62
67572;SHT31;54397;47.506;19.158;2023-02-11T05:28:47;-3.19;72.60
67572;SHT31;54397;47.506;19.158;2023-02-11T05:32:11;-3.44;73.45
67572;SHT31;54397;47.506;19.158;2023-02-11T05:35:38;-3.61;73.61
67572;SHT31;54397;47.506;19.158;2023-02-11T05:39:02;-3.73;73.11
67572;SHT31;54397;47.506;19.158;2023-02-11T05:42:24;-3.31;73.06
67572;SHT31;54397;47.506;19.158;2023-02-11T05:45:48;-3.01;71.30
67572;SHT31;54397;47.506;19.158;2023-02-11T05:49:10;-2.89;70.68
67572;SHT31;54397;47.506;19.158;2023-02-11T05:52:32;-2.84;70.48
67572;SHT31;54397;47.506;19.158;2023-02-11T05:55:54;-2.95;71.31
67572;SHT31;54397;47.506;19.158;2023-02-11T05:59:18;-3.09;71.17
67572;SHT31;54397;47.506;19.158;2023-02-11T06:02:42;-2.89;70.22
67572;SHT31;54397;47.506;19.158;2023-02-11T06:06:09;-3.09;71.47
67572;SHT31;54397;47.506;19.158;2023-02-11T06:09:31;-2.95;71.12
67572;SHT31;54397;47.506;19.158;2023-02-11T06:12:55;-2.81;70.36
67572;SHT31;54397;47.506;19.158;2023-02-11T06:16:19;-2.96;70.99
67572;SHT31;54397;47.506;19.158;2023-02-11T06:19:40;-2.87;71.11
67572;SHT31;54397;47.506;19.158;2023-02-11T06:23:02;-2.84;70.73
67572;SHT31;54397;47.506;19.158;2023-02-11T06:26:24;-2.81;71.07
67572;SHT31;54397;47.506;19.158;2023-02-11T06:29:48;-2.77;71.49
67572;SHT31;54397;47.506;19.158;2023-02-11T06:33:10;-2.70;71.49
67572;SHT31;54397;47.506;19.158;2023-02-11T06:36:34;-2.47;72.29
67572;SHT31;54397;47.506;19.158;2023-02-11T06:39:56;-2.12;71.36
67572;SHT31;54397;47.506;19.158;2023-02-11T06:43:20;-1.91;71.10
67572;SHT31;54397;47.506;19.158;2023-02-11T06:46:44;-1.85;71.22
67572;SHT31;54397;47.506;19.158;2023-02-11T06:50:09;-1.88;71.35
67572;SHT31;54397;47.506;19.158;2023-02-11T06:53:37;-1.88;71.64
67572;SHT31;54397;47.506;19.158;2023-02-11T06:57:01;-1.82;73.59
67572;SHT31;54397;47.506;19.158;2023-02-11T07:00:23;-1.75;73.35
67572;SHT31;54397;47.506;19.158;2023-02-11T07:03:45;-1.66;73.08
67572;SHT31;54397;47.506;19.158;2023-02-11T07:07:07;-1.53;72.08
67572;SHT31;54397;47.506;19.158;2023-02-11T07:10:29;-1.42;72.45
67572;SHT31;54397;47.506;19.158;2023-02-11T07:13:53;-1.20;71.85
67572;SHT31;54397;47.506;19.158;2023-02-11T07:17:15;-1.32;72.67
67572;SHT31;54397;47.506;19.158;2023-02-11T07:20:41;-1.39;72.92
67572;SHT31;54397;47.506;19.158;2023-02-11T07:24:07;-1.37;72.85
67572;SHT31;54397;47.506;19.158;2023-02-11T07:27:31;-1.26;72.52
67572;SHT31;54397;47.506;19.158;2023-02-11T07:30:55;-1.05;73.39
67572;SHT31;54397;47.506;19.158;2023-02-11T07:34:17;-0.87;72.62
67572;SHT31;54397;47.506;19.158;2023-02-11T07:37:42;-0.62;72.25
67572;SHT31;54397;47.506;19.158;2023-02-11T07:41:05;-0.34;70.80
67572;SHT31;54397;47.506;19.158;2023-02-11T07:44:28;0.02;70.45
67572;SHT31;54397;47.506;19.158;2023-02-11T07:47:49;0.95;83.23
67572;SHT31;54397;47.506;19.158;2023-02-11T07:54:37;1.93;81.80
67572;SHT31;54397;47.506;19.158;2023-02-11T07:57:59;2.14;77.90
67572;SHT31;54397;47.506;19.158;2023-02-11T08:01:27;2.31;74.90
67572;SHT31;54397;47.506;19.158;2023-02-11T08:04:49;2.17;70.50
67572;SHT31;54397;47.506;19.158;2023-02-11T08:08:11;1.79;66.42
67572;SHT31;54397;47.506;19.158;2023-02-11T08:11:32;1.32;66.51
67572;SHT31;54397;47.506;19.158;2023-02-11T08:14:54;1.22;68.56
67572;SHT31;54397;47.506;19.158;2023-02-11T08:18:19;1.17;69.22
67572;SHT31;54397;47.506;19.158;2023-02-11T08:21:43;1.04;69.29
67572;SHT31;54397;47.506;19.158;2023-02-11T08:25:07;1.17;69.96
67572;SHT31;54397;47.506;19.158;2023-02-11T08:28:29;1.29;69.19
67572;SHT31;54397;47.506;19.158;2023-02-11T08:31:51;1.31;69.52
67572;SHT31;54397;47.506;19.158;2023-02-11T08:35:15;1.34;69.39
67572;SHT31;54397;47.506;19.158;2023-02-11T08:38:39;1.34;69.36
67572;SHT31;54397;47.506;19.158;2023-02-11T08:42:01;1.35;69.57
67572;SHT31;54397;47.506;19.158;2023-02-11T08:45:23;1.35;69.48
67572;SHT31;54397;47.506;19.158;2023-02-11T08:48:47;1.39;69.82
67572;SHT31;54397;47.506;19.158;2023-02-11T08:52:09;1.62;71.85
67572;SHT31;54397;47.506;19.158;2023-02-11T08:55:30;2.42;77.72
67572;SHT31;54397;47.506;19.158;2023-02-11T08:58:52;3.21;75.19
67572;SHT31;54397;47.506;19.158;2023-02-11T09:02:17;3.87;71.67
67572;SHT31;54397;47.506;19.158;2023-02-11T09:05:46;4.37;68.80
67572;SHT31;54397;47.506;19.158;2023-02-11T09:09:10;4.68;66.86
67572;SHT31;54397;47.506;19.158;2023-02-11T09:12:38;5.12;63.74
67572;SHT31;54397;47.506;19.158;2023-02-11T09:16:02;5.16;58.14
67572;SHT31;54397;47.506;19.158;2023-02-11T09:19:28;5.30;57.28
67572;SHT31;54397;47.506;19.158;2023-02-11T09:22:50;5.54;56.46
67572;SHT31;54397;47.506;19.158;2023-02-11T09:26:31;5.89;55.85
67572;SHT31;54397;47.506;19.158;2023-02-11T09:29:53;6.41;52.97
67572;SHT31;54397;47.506;19.158;2023-02-11T09:33:16;6.91;52.28
67572;SHT31;54397;47.506;19.158;2023-02-11T09:36:39;6.93;51.98
67572;SHT31;54397;47.506;19.158;2023-02-11T09:40:06;7.19;51.19
67572;SHT31;54397;47.506;19.158;2023-02-11T09:43:45;7.19;48.29
67572;SHT31;54397;47.506;19.158;2023-02-11T09:47:33;6.82;48.69
67572;SHT31;54397;47.506;19.158;2023-02-11T09:51:02;6.68;49.25
67572;SHT31;54397;47.506;19.158;2023-02-11T09:54:33;7.64;47.37
67572;SHT31;54397;47.506;19.158;2023-02-11T09:57:56;7.30;46.96
67572;SHT31;54397;47.506;19.158;2023-02-11T10:06:04;7.15;47.06
67572;SHT31;54397;47.506;19.158;2023-02-11T10:12:33;6.95;54.22
67572;SHT31;54397;47.506;19.158;2023-02-11T10:23:38;8.53;60.20
67572;SHT31;54397;47.506;19.158;2023-02-11T10:27:05;8.63;52.14
67572;SHT31;54397;47.506;19.158;2023-02-11T10:30:37;8.50;52.99
67572;SHT31;54397;47.506;19.158;2023-02-11T10:34:12;9.01;49.43
67572;SHT31;54397;47.506;19.158;2023-02-11T10:37:34;9.11;42.90
67572;SHT31;54397;47.506;19.158;2023-02-11T10:40:55;9.43;43.76
67572;SHT31;54397;47.506;19.158;2023-02-11T10:47:44;9.56;42.52
67572;SHT31;54397;47.506;19.158;2023-02-11T10:51:23;8.79;44.54
67572;SHT31;54397;47.506;19.158;2023-02-11T11:01:49;10.63;41.01
67572;SHT31;54397;47.506;19.158;2023-02-11T11:05:17;9.80;42.21
67572;SHT31;54397;47.506;19.158;2023-02-11T11:08:47;8.99;44.71
67572;SHT31;54397;47.506;19.158;2023-02-11T11:19:36;8.84;43.89
67572;SHT31;54397;47.506;19.158;2023-02-11T11:23:17;8.98;57.80
67572;SHT31;54397;47.506;19.158;2023-02-11T11:26:49;9.40;50.64
67572;SHT31;54397;47.506;19.158;2023-02-11T11:30:15;9.91;47.48
67572;SHT31;54397;47.506;19.158;2023-02-11T11:33:43;10.94;48.24
67572;SHT31;54397;47.506;19.158;2023-02-11T11:37:27;11.87;39.74
67572;SHT31;54397;47.506;19.158;2023-02-11T11:41:13;12.68;49.35
67572;SHT31;54397;47.506;19.158;2023-02-11T11:44:36;13.98;45.00
67572;SHT31;54397;47.506;19.158;2023-02-11T11:48:17;13.23;41.80
67572;SHT31;54397;47.506;19.158;2023-02-11T11:51:41;13.24;43.35
67572;SHT31;54397;47.506;19.158;2023-02-11T11:55:18;11.80;39.08
67572;SHT31;54397;47.506;19.158;2023-02-11T11:58:43;12.82;45.88
67572;SHT31;54397;47.506;19.158;2023-02-11T12:10:21;12.53;42.30
67572;SHT31;54397;47.506;19.158;2023-02-11T12:17:22;12.37;42.02
67572;SHT31;54397;47.506;19.158;2023-02-11T12:32:33;12.88;45.24
67572;SHT31;54397;47.506;19.158;2023-02-11T12:36:16;14.50;42.12
67572;SHT31;54397;47.506;19.158;2023-02-11T12:39:47;15.02;33.59
67572;SHT31;54397;47.506;19.158;2023-02-11T12:43:23;13.99;41.13
67572;SHT31;54397;47.506;19.158;2023-02-11T12:47:24;12.76;38.19
67572;SHT31;54397;47.506;19.158;2023-02-11T12:50:55;12.90;44.53
67572;SHT31;54397;47.506;19.158;2023-02-11T12:54:28;12.82;39.08
67572;SHT31;54397;47.506;19.158;2023-02-11T12:57:55;14.01;37.50
67572;SHT31;54397;47.506;19.158;2023-02-11T13:01:25;14.14;44.43
67572;SHT31;54397;47.506;19.158;2023-02-11T13:04:57;14.77;38.72
67572;SHT31;54397;47.506;19.158;2023-02-11T13:08:49;14.30;29.83
67572;SHT31;54397;47.506;19.158;2023-02-11T13:12:12;15.32;39.53
67572;SHT31;54397;47.506;19.158;2023-02-11T13:16:00;14.65;36.81
67572;SHT31;54397;47.506;19.158;2023-02-11T13:19:36;14.43;35.62
67572;SHT31;54397;47.506;19.158;2023-02-11T13:23:12;13.96;40.10
67572;SHT31;54397;47.506;19.158;2023-02-11T13:33:48;11.21;38.52
67572;SHT31;54397;47.506;19.158;2023-02-11T13:37:35;11.36;34.80
67572;SHT31;54397;47.506;19.158;2023-02-11T13:44:27;10.31;35.90
67572;SHT31;54397;47.506;19.158;2023-02-11T13:47:58;9.99;36.07
67572;SHT31;54397;47.506;19.158;2023-02-11T13:51:41;9.83;36.72
67572;SHT31;54397;47.506;19.158;2023-02-11T13:58:47;9.37;38.85
67572;SHT31;54397;47.506;19.158;2023-02-11T14:02:34;9.32;38.89
67572;SHT31;54397;47.506;19.158;2023-02-11T14:06:18;9.08;38.31
67572;SHT31;54397;47.506;19.158;2023-02-11T14:10:01;8.85;38.47
67572;SHT31;54397;47.506;19.158;2023-02-11T14:13:30;8.99;38.22
67572;SHT31;54397;47.506;19.158;2023-02-11T14:20:40;8.72;39.57
67572;SHT31;54397;47.506;19.158;2023-02-11T14:31:07;8.72;40.03
67572;SHT31;54397;47.506;19.158;2023-02-11T14:42:18;8.61;41.68
67572;SHT31;54397;47.506;19.158;2023-02-11T14:45:50;8.74;40.21
67572;SHT31;54397;47.506;19.158;2023-02-11T14:49:33;8.57;41.63
67572;SHT31;54397;47.506;19.158;2023-02-11T14:52:59;8.39;41.05
67572;SHT31;54397;47.506;19.158;2023-02-11T14:56:25;8.32;42.12
67572;SHT31;54397;47.506;19.158;2023-02-11T15:00:00;8.39;42.61
67572;SHT31;54397;47.506;19.158;2023-02-11T15:06:53;8.47;42.15
67572;SHT31;54397;47.506;19.158;2023-02-11T15:11:07;8.49;42.46
67572;SHT31;54397;47.506;19.158;2023-02-11T15:14:10;8.13;42.41
67572;SHT31;54397;47.506;19.158;2023-02-11T15:17:35;8.19;42.21
67572;SHT31;54397;47.506;19.158;2023-02-11T15:20:56;8.33;42.52
67572;SHT31;54397;47.506;19.158;2023-02-11T15:24:28;8.09;43.36
67572;SHT31;54397;47.506;19.158;2023-02-11T15:27:54;8.16;43.86
67572;SHT31;54397;47.506;19.158;2023-02-11T15:31:21;8.13;43.60
67572;SHT31;54397;47.506;19.158;2023-02-11T15:34:45;8.02;44.08
67572;SHT31;54397;47.506;19.158;2023-02-11T15:38:10;8.03;43.16
67572;SHT31;54397;47.506;19.158;2023-02-11T15:41:35;7.96;44.61
67572;SHT31;54397;47.506;19.158;2023-02-11T15:48:36;8.71;53.79
67572;SHT31;54397;47.506;19.158;2023-02-11T15:52:01;9.06;48.11
67572;SHT31;54397;47.506;19.158;2023-02-11T15:55:25;9.36;50.17
67572;SHT31;54397;47.506;19.158;2023-02-11T15:58:50;9.22;50.24
67572;SHT31;54397;47.506;19.158;2023-02-11T16:02:19;9.50;50.97
67572;SHT31;54397;47.506;19.158;2023-02-11T16:05:41;9.64;47.20
67572;SHT31;54397;47.506;19.158;2023-02-11T16:12:28;8.81;43.17
67572;SHT31;54397;47.506;19.158;2023-02-11T16:16:02;8.54;44.19
67572;SHT31;54397;47.506;19.158;2023-02-11T16:19:26;8.34;44.95
67572;SHT31;54397;47.506;19.158;2023-02-11T16:22:48;8.26;45.53
67572;SHT31;54397;47.506;19.158;2023-02-11T16:26:31;8.12;45.97
67572;SHT31;54397;47.506;19.158;2023-02-11T16:29:58;8.02;46.22
67572;SHT31;54397;47.506;19.158;2023-02-11T16:33:19;7.95;46.21
67572;SHT31;54397;47.506;19.158;2023-02-11T16:36:44;7.93;46.12
67572;SHT31;54397;47.506;19.158;2023-02-11T16:40:08;7.51;46.37
67572;SHT31;54397;47.506;19.158;2023-02-11T16:43:30;7.50;46.94
67572;SHT31;54397;47.506;19.158;2023-02-11T16:46:52;7.53;47.15
67572;SHT31;54397;47.506;19.158;2023-02-11T16:50:22;7.42;48.11
67572;SHT31;54397;47.506;19.158;2023-02-11T16:53:44;7.42;48.05
67572;SHT31;54397;47.506;19.158;2023-02-11T16:57:26;7.65;46.64
67572;SHT31;54397;47.506;19.158;2023-02-11T17:00:50;7.57;47.29
67572;SHT31;54397;47.506;19.158;2023-02-11T17:04:23;7.51;47.80
67572;SHT31;54397;47.506;19.158;2023-02-11T17:07:48;7.68;56.23
67572;SHT31;54397;47.506;19.158;2023-02-11T17:11:10;8.06;57.14
67572;SHT31;54397;47.506;19.158;2023-02-11T17:14:31;8.50;55.25
67572;SHT31;54397;47.506;19.158;2023-02-11T17:17:55;8.79;53.80
67572;SHT31;54397;47.506;19.158;2023-02-11T17:21:17;8.89;54.60
67572;SHT31;54397;47.506;19.158;2023-02-11T17:24:43;9.06;53.09
67572;SHT31;54397;47.506;19.158;2023-02-11T17:28:06;9.22;52.83
67572;SHT31;54397;47.506;19.158;2023-02-11T17:31:28;8.93;45.54
67572;SHT31;54397;47.506;19.158;2023-02-11T17:34:51;8.51;46.07
67572;SHT31;54397;47.506;19.158;2023-02-11T17:38:13;8.22;47.05
67572;SHT31;54397;47.506;19.158;2023-02-11T17:41:39;7.99;48.15
67572;SHT31;54397;47.506;19.158;2023-02-11T17:45:01;7.91;47.74
67572;SHT31;54397;47.506;19.158;2023-02-11T17:48:23;7.82;48.02
67572;SHT31;54397;47.506;19.158;2023-02-11T17:51:47;7.67;48.66
67572;SHT31;54397;47.506;19.158;2023-02-11T17:55:09;7.61;49.48
67572;SHT31;54397;47.506;19.158;2023-02-11T17:58:30;7.53;49.86
67572;SHT31;54397;47.506;19.158;2023-02-11T18:01:52;7.44;50.43
67572;SHT31;54397;47.506;19.158;2023-02-11T18:05:19;7.44;50.32
67572;SHT31;54397;47.506;19.158;2023-02-11T18:08:40;7.42;50.34
67572;SHT31;54397;47.506;19.158;2023-02-11T18:12:06;7.40;50.31
67572;SHT31;54397;47.506;19.158;2023-02-11T18:15:32;7.31;49.81
67572;SHT31;54397;47.506;19.158;2023-02-11T18:18:57;7.05;50.00
67572;SHT31;54397;47.506;19.158;2023-02-11T18:22:21;6.98;51.38
67572;SHT31;54397;47.506;19.158;2023-02-11T18:25:45;6.99;51.35
67572;SHT31;54397;47.506;19.158;2023-02-11T18:29:09;7.38;62.25
67572;SHT31;54397;47.506;19.158;2023-02-11T18:32:36;7.84;57.42
67572;SHT31;54397;47.506;19.158;2023-02-11T18:36:00;8.26;58.72
67572;SHT31;54397;47.506;19.158;2023-02-11T18:39:29;8.65;55.94
67572;SHT31;54397;47.506;19.158;2023-02-11T18:42:51;8.91;56.60
67572;SHT31;54397;47.506;19.158;2023-02-11T18:46:19;8.93;51.58
67572;SHT31;54397;47.506;19.158;2023-02-11T18:49:40;8.33;46.76
67572;SHT31;54397;47.506;19.158;2023-02-11T18:53:02;8.02;47.76
67572;SHT31;54397;47.506;19.158;2023-02-11T18:56:24;7.67;49.55
67572;SHT31;54397;47.506;19.158;2023-02-11T18:59:48;7.47;49.62
67572;SHT31;54397;47.506;19.158;2023-02-11T19:03:11;7.23;50.18
67572;SHT31;54397;47.506;19.158;2023-02-11T19:06:34;7.43;50.32
67572;SHT31;54397;47.506;19.158;2023-02-11T19:09:57;7.34;50.48
67572;SHT31;54397;47.506;19.158;2023-02-11T19:13:19;7.44;50.40
67572;SHT31;54397;47.506;19.158;2023-02-11T19:16:42;7.50;49.78
67572;SHT31;54397;47.506;19.158;2023-02-11T19:20:05;7.34;51.06
67572;SHT31;54397;47.506;19.158;2023-02-11T19:23:27;7.40;50.51
67572;SHT31;54397;47.506;19.158;2023-02-11T19:26:52;7.27;51.20
67572;SHT31;54397;47.506;19.158;2023-02-11T19:30:15;7.28;51.16
67572;SHT31;54397;47.506;19.158;2023-02-11T19:33:37;7.38;53.57
67572;SHT31;54397;47.506;19.158;2023-02-11T19:36:58;7.40;53.50
67572;SHT31;54397;47.506;19.158;2023-02-11T19:40:24;7.43;52.43
67572;SHT31;54397;47.506;19.158;2023-02-11T19:43:50;7.40;52.18
67572;SHT31;54397;47.506;19.158;2023-02-11T19:47:13;7.36;51.97
67572;SHT31;54397;47.506;19.158;2023-02-11T19:50:35;7.38;51.18
67572;SHT31;54397;47.506;19.158;2023-02-11T19:53:57;7.37;51.14
67572;SHT31;54397;47.506;19.158;2023-02-11T19:57:18;7.34;51.21
67572;SHT31;54397;47.506;19.158;2023-02-11T20:00:42;6.92;51.03
67572;SHT31;54397;47.506;19.158;2023-02-11T20:04:04;6.88;51.68
67572;SHT31;54397;47.506;19.158;2023-02-11T20:07:31;7.09;51.59
67572;SHT31;54397;47.506;19.158;2023-02-11T20:10:53;7.02;52.54
67572;SHT31;54397;47.506;19.158;2023-02-11T20:14:14;6.99;53.01
67572;SHT31;54397;47.506;19.158;2023-02-11T20:17:36;7.05;53.40
67572;SHT31;54397;47.506;19.158;2023-02-11T20:20:58;6.78;53.47
67572;SHT31;54397;47.506;19.158;2023-02-11T20:24:24;6.78;53.66
67572;SHT31;54397;47.506;19.158;2023-02-11T20:27:46;6.75;54.29
67572;SHT31;54397;47.506;19.158;2023-02-11T20:31:08;6.98;53.75
67572;SHT31;54397;47.506;19.158;2023-02-11T20:34:31;6.91;54.60
67572;SHT31;54397;47.506;19.158;2023-02-11T20:37:53;6.82;54.59
67572;SHT31;54397;47.506;19.158;2023-02-11T20:41:20;6.65;54.97
67572;SHT31;54397;47.506;19.158;2023-02-11T20:44:45;6.57;55.55
67572;SHT31;54397;47.506;19.158;2023-02-11T20:48:07;6.74;55.61
67572;SHT31;54397;47.506;19.158;2023-02-11T20:51:32;6.82;56.08
67572;SHT31;54397;47.506;19.158;2023-02-11T20:54:54;6.71;56.36
67572;SHT31;54397;47.506;19.158;2023-02-11T20:58:18;6.33;57.12
67572;SHT31;54397;47.506;19.158;2023-02-11T21:01:42;6.36;57.13
67572;SHT31;54397;47.506;19.158;2023-02-11T21:05:05;6.61;57.46
67572;SHT31;54397;47.506;19.158;2023-02-11T21:08:26;6.50;58.27
67572;SHT31;54397;47.506;19.158;2023-02-11T21:11:49;6.51;58.64
67572;SHT31;54397;47.506;19.158;2023-02-11T21:15:14;6.51;59.22
67572;SHT31;54397;47.506;19.158;2023-02-11T21:18:36;6.48;60.44
67572;SHT31;54397;47.506;19.158;2023-02-11T21:21:58;6.59;60.21
67572;SHT31;54397;47.506;19.158;2023-02-11T21:25:21;6.68;60.56
67572;SHT31;54397;47.506;19.158;2023-02-11T21:28:45;6.47;61.26
67572;SHT31;54397;47.506;19.158;2023-02-11T21:32:07;6.41;61.44
67572;SHT31;54397;47.506;19.158;2023-02-11T21:35:35;6.50;61.81
67572;SHT31;54397;47.506;19.158;2023-02-11T21:38:57;6.50;62.26
67572;SHT31;54397;47.506;19.158;2023-02-11T21:42:22;6.42;63.24
67572;SHT31;54397;47.506;19.158;2023-02-11T21:45:46;6.71;63.45
67572;SHT31;54397;47.506;19.158;2023-02-11T21:49:10;6.69;63.41
67572;SHT31;54397;47.506;19.158;2023-02-11T21:52:31;6.31;64.32
67572;SHT31;54397;47.506;19.158;2023-02-11T21:56:08;6.42;65.24
67572;SHT31;54397;47.506;19.158;2023-02-11T21:59:30;6.58;65.13
67572;SHT31;54397;47.506;19.158;2023-02-11T22:02:52;6.33;65.54
67572;SHT31;54397;47.506;19.158;2023-02-11T22:06:16;6.11;65.95
67572;SHT31;54397;47.506;19.158;2023-02-11T22:09:39;6.29;65.83
67572;SHT31;54397;47.506;19.158;2023-02-11T22:13:03;6.44;65.36
67572;SHT31;54397;47.506;19.158;2023-02-11T22:16:25;6.31;65.65
67572;SHT31;54397;47.506;19.158;2023-02-11T22:19:50;6.50;65.13
67572;SHT31;54397;47.506;19.158;2023-02-11T22:23:16;6.11;66.19
67572;SHT31;54397;47.506;19.158;2023-02-11T22:26:38;6.07;67.24
67572;SHT31;54397;47.506;19.158;2023-02-11T22:30:00;6.19;67.18
67572;SHT31;54397;47.506;19.158;2023-02-11T22:33:24;6.29;66.45
67572;SHT31;54397;47.506;19.158;2023-02-11T22:36:45;6.17;66.32
67572;SHT31;54397;47.506;19.158;2023-02-11T22:40:07;6.16;65.99
67572;SHT31;54397;47.506;19.158;2023-02-11T22:43:29;5.78;67.13
67572;SHT31;54397;47.506;19.158;2023-02-11T22:46:52;5.55;68.35
67572;SHT31;54397;47.506;19.158;2023-02-11T22:50:14;5.73;67.85
67572;SHT31;54397;47.506;19.158;2023-02-11T22:53:38;5.82;67.61
67572;SHT31;54397;47.506;19.158;2023-02-11T22:56:59;5.73;68.38
67572;SHT31;54397;47.506;19.158;2023-02-11T23:00:27;5.59;69.27
67572;SHT31;54397;47.506;19.158;2023-02-11T23:03:53;5.58;69.73
67572;SHT31;54397;47.506;19.158;2023-02-11T23:07:15;5.52;70.40
67572;SHT31;54397;47.506;19.158;2023-02-11T23:10:37;5.65;70.13
67572;SHT31;54397;47.506;19.158;2023-02-11T23:14:02;5.71;70.29
67572;SHT31;54397;47.506;19.158;2023-02-11T23:17:24;5.68;70.28
67572;SHT31;54397;47.506;19.158;2023-02-11T23:20:46;5.73;70.41
67572;SHT31;54397;47.506;19.158;2023-02-11T23:24:12;5.81;70.57
67572;SHT31;54397;47.506;19.158;2023-02-11T23:27:39;5.73;70.98
67572;SHT31;54397;47.506;19.158;2023-02-11T23:31:11;5.85;70.75
67572;SHT31;54397;47.506;19.158;2023-02-11T23:34:37;5.55;71.17
67572;SHT31;54397;47.506;19.158;2023-02-11T23:37:59;5.61;71.36
67572;SHT31;54397;47.506;19.158;2023-02-11T23:41:21;5.68;71.25
67572;SHT31;54397;47.506;19.158;2023-02-11T23:44:47;5.83;70.91
67572;SHT31;54397;47.506;19.158;2023-02-11T23:48:12;5.82;71.15
67572;SHT31;54397;47.506;19.158;2023-02-11T23:51:34;5.81;71.40